sensor_id;sensor_type;location;lat;lon;timestamp;pressure;altitude;pressure_sealevel;temperature;humidity
42727;BME280;28372;56.832;60.658;2022-08-03T00:01:47;98312.41;;;19.24;63.47
42727;BME280;28372;56.832;60.658;2022-08-03T00:04:15;98319.00;;;19.26;63.44
42727;BME280;28372;56.832;60.658;2022-08-03T00:06:42;98315.47;;;19.26;63.01
42727;BME280;28372;56.832;60.658;2022-08-03T00:09:10;98314.25;;;19.30;63.26
42727;BME280;28372;56.832;60.658;2022-08-03T00:11:38;98311.50;;;19.30;62.82
42727;BME280;28372;56.832;60.658;2022-08-03T00:14:06;98323.25;;;19.31;63.18
42727;BME280;28372;56.832;60.658;2022-08-03T00:16:35;98326.06;;;19.27;63.31
42727;BME280;28372;56.832;60.658;2022-08-03T00:19:02;98329.97;;;19.26;63.45
42727;BME280;28372;56.832;60.658;2022-08-03T00:21:30;98322.91;;;19.29;63.47
42727;BME280;28372;56.832;60.658;2022-08-03T00:23:58;98324.09;;;19.28;63.84
42727;BME280;28372;56.832;60.658;2022-08-03T00:26:26;98330.69;;;19.30;63.47
42727;BME280;28372;56.832;60.658;2022-08-03T00:28:53;98329.41;;;19.39;63.19
42727;BME280;28372;56.832;60.658;2022-08-03T00:31:21;98334.69;;;19.49;62.21
42727;BME280;28372;56.832;60.658;2022-08-03T00:34:08;98326.41;;;19.53;62.00
42727;BME280;28372;56.832;60.658;2022-08-03T00:36:38;98319.44;;;19.48;62.13
42727;BME280;28372;56.832;60.658;2022-08-03T00:39:06;98329.91;;;19.54;61.90
42727;BME280;28372;56.832;60.658;2022-08-03T00:41:33;98326.41;;;19.53;62.07
42727;BME280;28372;56.832;60.658;2022-08-03T00:44:01;98334.97;;;19.55;62.02
42727;BME280;28372;56.832;60.658;2022-08-03T00:46:28;98334.94;;;19.59;61.46
42727;BME280;28372;56.832;60.658;2022-08-03T00:48:55;98332.91;;;19.63;61.71
42727;BME280;28372;56.832;60.658;2022-08-03T00:51:24;98339.84;;;19.67;61.62
42727;BME280;28372;56.832;60.658;2022-08-03T00:53:51;98342.59;;;19.67;61.57
42727;BME280;28372;56.832;60.658;2022-08-03T00:56:19;98345.34;;;19.67;61.81
42727;BME280;28372;56.832;60.658;2022-08-03T00:58:46;98350.38;;;19.73;61.03
42727;BME280;28372;56.832;60.658;2022-08-03T01:01:14;98350.72;;;19.75;60.68
42727;BME280;28372;56.832;60.658;2022-08-03T01:03:43;98345.94;;;19.79;60.20
42727;BME280;28372;56.832;60.658;2022-08-03T01:06:35;98354.00;;;20.10;62.14
42727;BME280;28372;56.832;60.658;2022-08-03T01:11:55;98357.19;;;20.08;62.31
42727;BME280;28372;56.832;60.658;2022-08-03T01:14:45;98348.47;;;20.13;62.80
42727;BME280;28372;56.832;60.658;2022-08-03T01:17:33;98349.66;;;20.12;61.61
42727;BME280;28372;56.832;60.658;2022-08-03T01:20:06;98356.56;;;20.20;60.87
42727;BME280;28372;56.832;60.658;2022-08-03T01:25:47;98356.69;;;20.33;59.26
42727;BME280;28372;56.832;60.658;2022-08-03T01:31:19;98357.13;;;20.32;60.28
42727;BME280;28372;56.832;60.658;2022-08-03T01:33:56;98357.66;;;20.43;60.11
42727;BME280;28372;56.832;60.658;2022-08-03T01:36:31;98355.78;;;20.40;59.82
42727;BME280;28372;56.832;60.658;2022-08-03T01:39:04;98363.53;;;20.45;60.35
42727;BME280;28372;56.832;60.658;2022-08-03T01:41:41;98368.09;;;20.52;60.07
42727;BME280;28372;56.832;60.658;2022-08-03T01:44:11;98362.31;;;20.46;58.57
42727;BME280;28372;56.832;60.658;2022-08-03T01:46:58;98360.91;;;20.58;59.11
42727;BME280;28372;56.832;60.658;2022-08-03T01:49:27;98368.44;;;20.54;58.40
42727;BME280;28372;56.832;60.658;2022-08-03T01:51:57;98376.19;;;20.59;58.72
42727;BME280;28372;56.832;60.658;2022-08-03T01:54:36;98365.06;;;20.66;59.62
42727;BME280;28372;56.832;60.658;2022-08-03T01:57:04;98365.97;;;20.60;58.09
42727;BME280;28372;56.832;60.658;2022-08-03T01:59:34;98367.00;;;20.66;58.59
42727;BME280;28372;56.832;60.658;2022-08-03T02:02:04;98370.06;;;20.71;58.27
42727;BME280;28372;56.832;60.658;2022-08-03T02:04:54;98369.06;;;20.82;57.53
42727;BME280;28372;56.832;60.658;2022-08-03T02:07:24;98377.13;;;20.73;56.97
42727;BME280;28372;56.832;60.658;2022-08-03T02:09:53;98374.03;;;20.70;57.30
42727;BME280;28372;56.832;60.658;2022-08-03T02:12:25;98387.53;;;20.81;57.80
42727;BME280;28372;56.832;60.658;2022-08-03T02:15:15;98378.16;;;20.79;55.93
42727;BME280;28372;56.832;60.658;2022-08-03T02:17:46;98387.88;;;20.83;56.65
42727;BME280;28372;56.832;60.658;2022-08-03T02:20:14;98379.22;;;20.85;56.69
42727;BME280;28372;56.832;60.658;2022-08-03T02:22:43;98391.88;;;20.99;57.13
42727;BME280;28372;56.832;60.658;2022-08-03T02:25:12;98382.41;;;21.00;56.39
42727;BME280;28372;56.832;60.658;2022-08-03T02:27:51;98386.56;;;21.25;57.02
42727;BME280;28372;56.832;60.658;2022-08-03T02:30:27;98391.38;;;21.20;55.40
42727;BME280;28372;56.832;60.658;2022-08-03T02:32:56;98385.78;;;21.24;53.92
42727;BME280;28372;56.832;60.658;2022-08-03T02:35:25;98387.69;;;21.27;53.21
42727;BME280;28372;56.832;60.658;2022-08-03T02:38:00;98388.97;;;21.39;53.67
42727;BME280;28372;56.832;60.658;2022-08-03T02:40:29;98395.06;;;21.47;53.34
42727;BME280;28372;56.832;60.658;2022-08-03T02:43:11;98395.34;;;21.69;53.52
42727;BME280;28372;56.832;60.658;2022-08-03T02:45:43;98390.28;;;21.67;52.68
42727;BME280;28372;56.832;60.658;2022-08-03T02:48:16;98393.09;;;21.80;52.65
42727;BME280;28372;56.832;60.658;2022-08-03T02:50:44;98398.16;;;21.82;51.29
42727;BME280;28372;56.832;60.658;2022-08-03T02:53:15;98393.41;;;21.99;52.39
42727;BME280;28372;56.832;60.658;2022-08-03T02:55:45;98388.22;;;22.59;50.70
42727;BME280;28372;56.832;60.658;2022-08-03T02:58:16;98399.59;;;23.65;46.66
42727;BME280;28372;56.832;60.658;2022-08-03T03:00:45;98397.13;;;24.81;44.93
42727;BME280;28372;56.832;60.658;2022-08-03T03:03:14;98394.06;;;25.79;42.29
42727;BME280;28372;56.832;60.658;2022-08-03T03:05:42;98391.25;;;26.72;40.38
42727;BME280;28372;56.832;60.658;2022-08-03T03:08:24;98387.56;;;27.66;37.14
42727;BME280;28372;56.832;60.658;2022-08-03T03:10:57;98397.25;;;28.34;35.61
42727;BME280;28372;56.832;60.658;2022-08-03T03:13:30;98398.19;;;29.05;34.87
42727;BME280;28372;56.832;60.658;2022-08-03T03:16:03;98399.56;;;29.66;34.49
42727;BME280;28372;56.832;60.658;2022-08-03T03:18:33;98388.22;;;30.37;33.08
42727;BME280;28372;56.832;60.658;2022-08-03T03:21:02;98395.91;;;31.06;31.55
42727;BME280;28372;56.832;60.658;2022-08-03T03:23:31;98400.59;;;31.64;30.59
42727;BME280;28372;56.832;60.658;2022-08-03T03:26:02;98397.75;;;32.19;30.34
42727;BME280;28372;56.832;60.658;2022-08-03T03:28:31;98391.44;;;32.47;29.43
42727;BME280;28372;56.832;60.658;2022-08-03T03:30:59;98398.31;;;33.08;28.17
42727;BME280;28372;56.832;60.658;2022-08-03T03:33:27;98391.88;;;33.53;27.10
42727;BME280;28372;56.832;60.658;2022-08-03T03:35:55;98403.19;;;33.94;27.11
42727;BME280;28372;56.832;60.658;2022-08-03T03:38:23;98404.72;;;34.43;26.28
42727;BME280;28372;56.832;60.658;2022-08-03T03:40:51;98395.19;;;34.88;25.96
42727;BME280;28372;56.832;60.658;2022-08-03T03:43:19;98400.41;;;35.33;25.53
42727;BME280;28372;56.832;60.658;2022-08-03T03:45:46;98390.34;;;35.62;24.59
42727;BME280;28372;56.832;60.658;2022-08-03T03:48:14;98402.03;;;36.10;24.38
42727;BME280;28372;56.832;60.658;2022-08-03T03:50:42;98403.00;;;36.51;23.64
42727;BME280;28372;56.832;60.658;2022-08-03T03:53:11;98411.00;;;36.79;23.52
42727;BME280;28372;56.832;60.658;2022-08-03T03:55:42;98399.69;;;37.25;22.28
42727;BME280;28372;56.832;60.658;2022-08-03T03:58:30;98414.03;;;37.67;22.18
42727;BME280;28372;56.832;60.658;2022-08-03T04:00:58;98406.50;;;37.97;21.53
42727;BME280;28372;56.832;60.658;2022-08-03T04:03:26;98405.56;;;38.29;21.48
42727;BME280;28372;56.832;60.658;2022-08-03T04:05:54;98406.44;;;38.58;20.64
42727;BME280;28372;56.832;60.658;2022-08-03T04:08:41;98410.25;;;38.82;20.85
42727;BME280;28372;56.832;60.658;2022-08-03T04:11:45;98419.00;;;38.70;20.61
42727;BME280;28372;56.832;60.658;2022-08-03T04:14:18;98420.84;;;39.39;19.53
42727;BME280;28372;56.832;60.658;2022-08-03T04:16:55;98417.50;;;39.48;19.82
42727;BME280;28372;56.832;60.658;2022-08-03T04:19:30;98417.00;;;39.94;18.83
42727;BME280;28372;56.832;60.658;2022-08-03T04:22:01;98408.78;;;40.19;18.34
42727;BME280;28372;56.832;60.658;2022-08-03T04:24:33;98414.13;;;40.46;18.37
42727;BME280;28372;56.832;60.658;2022-08-03T04:27:04;98406.97;;;40.76;18.50
42727;BME280;28372;56.832;60.658;2022-08-03T04:29:34;98414.38;;;40.95;17.95
42727;BME280;28372;56.832;60.658;2022-08-03T04:32:10;98408.66;;;41.33;16.93
42727;BME280;28372;56.832;60.658;2022-08-03T04:34:39;98406.91;;;41.53;16.58
42727;BME280;28372;56.832;60.658;2022-08-03T04:37:11;98418.44;;;41.63;16.76
42727;BME280;28372;56.832;60.658;2022-08-03T04:39:41;98407.75;;;41.87;16.27
42727;BME280;28372;56.832;60.658;2022-08-03T04:42:11;98412.41;;;42.07;16.15
42727;BME280;28372;56.832;60.658;2022-08-03T04:44:41;98409.69;;;42.17;16.47
42727;BME280;28372;56.832;60.658;2022-08-03T04:47:11;98404.31;;;42.37;15.70
42727;BME280;28372;56.832;60.658;2022-08-03T04:49:39;98416.94;;;42.43;15.97
42727;BME280;28372;56.832;60.658;2022-08-03T04:52:07;98410.56;;;42.60;15.72
42727;BME280;28372;56.832;60.658;2022-08-03T04:54:44;98416.81;;;42.67;15.48
42727;BME280;28372;56.832;60.658;2022-08-03T04:57:17;98419.44;;;43.15;15.25
42727;BME280;28372;56.832;60.658;2022-08-03T04:59:53;98421.16;;;42.93;15.25
42727;BME280;28372;56.832;60.658;2022-08-03T05:02:31;98412.50;;;43.26;14.94
42727;BME280;28372;56.832;60.658;2022-08-03T05:04:59;98410.47;;;43.36;14.63
42727;BME280;28372;56.832;60.658;2022-08-03T05:07:29;98406.16;;;43.53;14.95
42727;BME280;28372;56.832;60.658;2022-08-03T05:10:04;98415.03;;;43.57;14.71
42727;BME280;28372;56.832;60.658;2022-08-03T05:12:43;98414.09;;;43.89;14.26
42727;BME280;28372;56.832;60.658;2022-08-03T05:15:11;98412.13;;;44.09;14.46
42727;BME280;28372;56.832;60.658;2022-08-03T05:17:39;98409.22;;;44.27;14.37
42727;BME280;28372;56.832;60.658;2022-08-03T05:20:07;98422.03;;;44.36;14.12
42727;BME280;28372;56.832;60.658;2022-08-03T05:22:34;98414.16;;;44.54;14.44
42727;BME280;28372;56.832;60.658;2022-08-03T05:25:02;98416.84;;;44.52;14.19
42727;BME280;28372;56.832;60.658;2022-08-03T05:27:30;98413.00;;;44.12;13.91
42727;BME280;28372;56.832;60.658;2022-08-03T05:29:57;98412.25;;;43.84;13.94
42727;BME280;28372;56.832;60.658;2022-08-03T05:32:45;98416.06;;;43.96;14.51
42727;BME280;28372;56.832;60.658;2022-08-03T05:35:12;98414.91;;;44.00;14.27
42727;BME280;28372;56.832;60.658;2022-08-03T05:38:01;98419.03;;;44.16;14.23
42727;BME280;28372;56.832;60.658;2022-08-03T05:40:29;98415.44;;;44.33;14.10
42727;BME280;28372;56.832;60.658;2022-08-03T05:42:57;98410.19;;;44.39;14.15
42727;BME280;28372;56.832;60.658;2022-08-03T05:45:25;98404.41;;;44.57;14.05
42727;BME280;28372;56.832;60.658;2022-08-03T05:47:54;98400.38;;;44.60;13.61
42727;BME280;28372;56.832;60.658;2022-08-03T05:50:22;98405.69;;;44.73;13.04
42727;BME280;28372;56.832;60.658;2022-08-03T05:52:49;98399.88;;;44.91;13.37
42727;BME280;28372;56.832;60.658;2022-08-03T05:55:17;98396.84;;;44.89;13.48
42727;BME280;28372;56.832;60.658;2022-08-03T05:57:45;98414.34;;;44.65;13.21
42727;BME280;28372;56.832;60.658;2022-08-03T06:00:15;98401.97;;;44.43;13.21
42727;BME280;28372;56.832;60.658;2022-08-03T06:02:44;98399.88;;;44.54;13.41
42727;BME280;28372;56.832;60.658;2022-08-03T06:05:12;98404.88;;;44.63;13.56
42727;BME280;28372;56.832;60.658;2022-08-03T06:07:39;98393.09;;;44.86;13.31
42727;BME280;28372;56.832;60.658;2022-08-03T06:10:08;98394.47;;;44.95;13.06
42727;BME280;28372;56.832;60.658;2022-08-03T06:12:55;98401.72;;;45.15;12.82
42727;BME280;28372;56.832;60.658;2022-08-03T06:15:23;98399.63;;;45.06;12.79
42727;BME280;28372;56.832;60.658;2022-08-03T06:17:51;98401.66;;;44.96;12.87
42727;BME280;28372;56.832;60.658;2022-08-03T06:20:19;98401.34;;;44.45;12.97
42727;BME280;28372;56.832;60.658;2022-08-03T06:22:47;98411.22;;;44.34;13.41
42727;BME280;28372;56.832;60.658;2022-08-03T06:25:26;98398.47;;;44.08;13.16
42727;BME280;28372;56.832;60.658;2022-08-03T06:27:53;98397.66;;;44.25;13.29
42727;BME280;28372;56.832;60.658;2022-08-03T06:30:21;98400.84;;;44.29;13.57
42727;BME280;28372;56.832;60.658;2022-08-03T06:32:48;98386.53;;;44.56;13.46
42727;BME280;28372;56.832;60.658;2022-08-03T06:35:18;98384.09;;;44.53;13.50
42727;BME280;28372;56.832;60.658;2022-08-03T06:37:48;98388.84;;;44.68;13.46
42727;BME280;28372;56.832;60.658;2022-08-03T06:40:18;98389.78;;;44.80;13.48
42727;BME280;28372;56.832;60.658;2022-08-03T06:42:50;98375.59;;;45.09;12.84
42727;BME280;28372;56.832;60.658;2022-08-03T06:45:17;98379.81;;;45.18;12.96
42727;BME280;28372;56.832;60.658;2022-08-03T06:47:45;98385.50;;;45.18;12.61
42727;BME280;28372;56.832;60.658;2022-08-03T06:50:13;98374.38;;;45.12;13.13
42727;BME280;28372;56.832;60.658;2022-08-03T06:52:43;98377.94;;;45.03;12.84
42727;BME280;28372;56.832;60.658;2022-08-03T06:55:11;98377.97;;;45.13;12.83
42727;BME280;28372;56.832;60.658;2022-08-03T06:57:38;98383.19;;;44.87;12.81
42727;BME280;28372;56.832;60.658;2022-08-03T07:00:06;98389.53;;;45.05;12.45
42727;BME280;28372;56.832;60.658;2022-08-03T07:02:38;98391.16;;;44.42;13.44
42727;BME280;28372;56.832;60.658;2022-08-03T07:05:07;98381.22;;;44.80;12.84
42727;BME280;28372;56.832;60.658;2022-08-03T07:07:35;98385.91;;;44.95;12.60
42727;BME280;28372;56.832;60.658;2022-08-03T07:10:04;98391.50;;;45.12;12.50
42727;BME280;28372;56.832;60.658;2022-08-03T07:12:33;98381.00;;;45.25;12.58
42727;BME280;28372;56.832;60.658;2022-08-03T07:15:01;98394.53;;;45.34;12.60
42727;BME280;28372;56.832;60.658;2022-08-03T07:17:33;98393.03;;;45.13;12.35
42727;BME280;28372;56.832;60.658;2022-08-03T07:20:03;98391.81;;;45.26;12.34
42727;BME280;28372;56.832;60.658;2022-08-03T07:22:31;98385.50;;;45.18;12.38
42727;BME280;28372;56.832;60.658;2022-08-03T07:24:59;98387.31;;;45.13;12.55
42727;BME280;28372;56.832;60.658;2022-08-03T07:27:27;98387.41;;;44.96;12.40
42727;BME280;28372;56.832;60.658;2022-08-03T07:29:58;98382.56;;;44.79;12.69
42727;BME280;28372;56.832;60.658;2022-08-03T07:32:26;98377.00;;;44.71;12.50
42727;BME280;28372;56.832;60.658;2022-08-03T07:34:54;98377.53;;;44.50;12.81
42727;BME280;28372;56.832;60.658;2022-08-03T07:37:27;98384.56;;;44.22;12.93
42727;BME280;28372;56.832;60.658;2022-08-03T07:39:55;98380.56;;;43.80;13.70
42727;BME280;28372;56.832;60.658;2022-08-03T07:42:22;98387.19;;;42.70;14.08
42727;BME280;28372;56.832;60.658;2022-08-03T07:44:50;98386.09;;;41.51;14.38
42727;BME280;28372;56.832;60.658;2022-08-03T07:47:22;98392.59;;;41.13;15.13
42727;BME280;28372;56.832;60.658;2022-08-03T07:50:00;98376.56;;;40.53;15.15
42727;BME280;28372;56.832;60.658;2022-08-03T07:52:28;98373.47;;;40.36;16.04
42727;BME280;28372;56.832;60.658;2022-08-03T07:55:15;98367.41;;;40.24;15.97
42727;BME280;28372;56.832;60.658;2022-08-03T07:57:43;98367.38;;;40.08;15.96
42727;BME280;28372;56.832;60.658;2022-08-03T08:00:16;98375.34;;;40.18;16.51
42727;BME280;28372;56.832;60.658;2022-08-03T08:02:44;98369.81;;;39.97;16.28
42727;BME280;28372;56.832;60.658;2022-08-03T08:05:12;98365.59;;;39.82;15.87
42727;BME280;28372;56.832;60.658;2022-08-03T08:07:40;98366.09;;;39.65;16.20
42727;BME280;28372;56.832;60.658;2022-08-03T08:10:08;98379.16;;;39.39;16.17
42727;BME280;28372;56.832;60.658;2022-08-03T08:12:39;98378.00;;;39.06;16.53
42727;BME280;28372;56.832;60.658;2022-08-03T08:15:07;98387.34;;;38.16;16.80
42727;BME280;28372;56.832;60.658;2022-08-03T08:17:53;98379.75;;;38.11;17.01
42727;BME280;28372;56.832;60.658;2022-08-03T08:20:29;98374.09;;;37.23;18.23
42727;BME280;28372;56.832;60.658;2022-08-03T08:22:59;98368.47;;;37.36;18.34
42727;BME280;28372;56.832;60.658;2022-08-03T08:25:30;98376.28;;;37.44;18.68
42727;BME280;28372;56.832;60.658;2022-08-03T08:27:58;98374.84;;;36.97;18.40
42727;BME280;28372;56.832;60.658;2022-08-03T08:30:50;98362.97;;;36.20;17.87
42727;BME280;28372;56.832;60.658;2022-08-03T08:33:17;98363.88;;;35.52;18.93
42727;BME280;28372;56.832;60.658;2022-08-03T08:35:48;98367.16;;;35.75;18.95
42727;BME280;28372;56.832;60.658;2022-08-03T08:38:16;98363.84;;;35.96;19.31
42727;BME280;28372;56.832;60.658;2022-08-03T08:40:44;98367.78;;;36.06;19.18
42727;BME280;28372;56.832;60.658;2022-08-03T08:43:11;98364.75;;;36.04;18.99
42727;BME280;28372;56.832;60.658;2022-08-03T08:45:41;98371.50;;;35.95;19.25
42727;BME280;28372;56.832;60.658;2022-08-03T08:48:09;98377.38;;;35.34;19.60
42727;BME280;28372;56.832;60.658;2022-08-03T08:50:39;98364.91;;;35.49;19.72
42727;BME280;28372;56.832;60.658;2022-08-03T08:53:09;98381.97;;;35.81;19.17
42727;BME280;28372;56.832;60.658;2022-08-03T08:55:46;98378.47;;;35.70;18.83
42727;BME280;28372;56.832;60.658;2022-08-03T08:58:33;98376.94;;;35.93;18.48
42727;BME280;28372;56.832;60.658;2022-08-03T09:01:02;98380.44;;;35.37;19.14
42727;BME280;28372;56.832;60.658;2022-08-03T09:03:32;98379.44;;;35.04;19.76
42727;BME280;28372;56.832;60.658;2022-08-03T09:06:00;98376.63;;;34.73;20.15
42727;BME280;28372;56.832;60.658;2022-08-03T09:08:30;98378.78;;;34.61;20.30
42727;BME280;28372;56.832;60.658;2022-08-03T09:10:58;98377.78;;;33.70;21.25
42727;BME280;28372;56.832;60.658;2022-08-03T09:13:25;98371.28;;;33.16;21.34
42727;BME280;28372;56.832;60.658;2022-08-03T09:18:37;98377.16;;;32.50;20.92
42727;BME280;28372;56.832;60.658;2022-08-03T09:21:31;98382.03;;;32.78;21.73
42727;BME280;28372;56.832;60.658;2022-08-03T09:24:02;98377.44;;;32.35;22.27
42727;BME280;28372;56.832;60.658;2022-08-03T09:26:34;98381.00;;;32.53;22.29
42727;BME280;28372;56.832;60.658;2022-08-03T09:29:06;98369.53;;;32.45;21.73
42727;BME280;28372;56.832;60.658;2022-08-03T09:31:44;98380.97;;;32.47;22.16
42727;BME280;28372;56.832;60.658;2022-08-03T09:34:13;98381.03;;;32.87;21.29
42727;BME280;28372;56.832;60.658;2022-08-03T09:36:48;98364.16;;;32.19;21.41
42727;BME280;28372;56.832;60.658;2022-08-03T09:39:18;98370.69;;;31.87;22.26
42727;BME280;28372;56.832;60.658;2022-08-03T09:44:43;98369.50;;;31.51;22.43
42727;BME280;28372;56.832;60.658;2022-08-03T09:47:14;98374.06;;;31.48;22.32
42727;BME280;28372;56.832;60.658;2022-08-03T09:49:55;98372.13;;;31.66;22.38
42727;BME280;28372;56.832;60.658;2022-08-03T09:52:38;98373.91;;;31.20;22.66
42727;BME280;28372;56.832;60.658;2022-08-03T09:55:18;98363.91;;;30.70;23.91
42727;BME280;28372;56.832;60.658;2022-08-03T09:58:11;98362.72;;;30.82;24.01
42727;BME280;28372;56.832;60.658;2022-08-03T10:01:01;98368.22;;;31.03;23.50
42727;BME280;28372;56.832;60.658;2022-08-03T10:03:37;98366.06;;;30.54;23.78
42727;BME280;28372;56.832;60.658;2022-08-03T10:06:25;98364.28;;;30.31;23.20
42727;BME280;28372;56.832;60.658;2022-08-03T10:09:09;98367.84;;;30.31;23.42
42727;BME280;28372;56.832;60.658;2022-08-03T10:11:38;98363.66;;;29.95;23.79
42727;BME280;28372;56.832;60.658;2022-08-03T10:14:10;98362.75;;;29.83;24.21
42727;BME280;28372;56.832;60.658;2022-08-03T10:16:46;98367.59;;;29.62;24.43
42727;BME280;28372;56.832;60.658;2022-08-03T10:19:15;98358.94;;;29.60;24.47
42727;BME280;28372;56.832;60.658;2022-08-03T10:21:48;98378.22;;;29.43;24.69
42727;BME280;28372;56.832;60.658;2022-08-03T10:24:22;98374.72;;;29.27;24.77
42727;BME280;28372;56.832;60.658;2022-08-03T10:26:51;98371.41;;;29.08;24.54
42727;BME280;28372;56.832;60.658;2022-08-03T10:29:21;98376.44;;;28.89;24.84
42727;BME280;28372;56.832;60.658;2022-08-03T10:31:53;98367.50;;;28.70;24.96
42727;BME280;28372;56.832;60.658;2022-08-03T10:34:33;98370.09;;;28.29;25.67
42727;BME280;28372;56.832;60.658;2022-08-03T10:37:04;98370.50;;;27.97;26.43
42727;BME280;28372;56.832;60.658;2022-08-03T10:39:35;98357.59;;;28.09;26.42
42727;BME280;28372;56.832;60.658;2022-08-03T10:42:04;98359.91;;;28.11;26.74
42727;BME280;28372;56.832;60.658;2022-08-03T10:44:41;98342.75;;;28.12;26.81
42727;BME280;28372;56.832;60.658;2022-08-03T10:47:09;98352.81;;;28.25;26.49
42727;BME280;28372;56.832;60.658;2022-08-03T10:49:37;98353.22;;;28.32;26.55
42727;BME280;28372;56.832;60.658;2022-08-03T10:52:05;98346.88;;;28.32;26.39
42727;BME280;28372;56.832;60.658;2022-08-03T10:54:41;98342.72;;;27.97;26.31
42727;BME280;28372;56.832;60.658;2022-08-03T10:57:49;98354.53;;;28.22;26.18
42727;BME280;28372;56.832;60.658;2022-08-03T11:00:26;98331.38;;;27.86;25.78
42727;BME280;28372;56.832;60.658;2022-08-03T11:03:10;98335.38;;;28.24;25.32
42727;BME280;28372;56.832;60.658;2022-08-03T11:05:45;98339.88;;;28.07;25.80
42727;BME280;28372;56.832;60.658;2022-08-03T11:08:32;98340.06;;;28.03;26.23
42727;BME280;28372;56.832;60.658;2022-08-03T11:14:03;98339.53;;;27.90;26.08
42727;BME280;28372;56.832;60.658;2022-08-03T11:16:36;98340.06;;;27.64;26.14
42727;BME280;28372;56.832;60.658;2022-08-03T11:19:09;98331.16;;;27.35;26.70
42727;BME280;28372;56.832;60.658;2022-08-03T11:40:46;98346.66;;;27.66;27.67
42727;BME280;28372;56.832;60.658;2022-08-03T11:48:41;98343.06;;;26.93;27.44
42727;BME280;28372;56.832;60.658;2022-08-03T11:51:23;98350.34;;;26.81;27.32
42727;BME280;28372;56.832;60.658;2022-08-03T11:53:56;98333.34;;;26.98;27.67
42727;BME280;28372;56.832;60.658;2022-08-03T11:56:24;98339.47;;;27.02;27.68
42727;BME280;28372;56.832;60.658;2022-08-03T11:58:54;98339.53;;;27.17;28.06
42727;BME280;28372;56.832;60.658;2022-08-03T12:01:42;98328.28;;;27.21;28.07
42727;BME280;28372;56.832;60.658;2022-08-03T12:04:12;98328.16;;;27.15;28.33
42727;BME280;28372;56.832;60.658;2022-08-03T12:06:39;98329.72;;;27.07;28.34
42727;BME280;28372;56.832;60.658;2022-08-03T12:09:22;98322.63;;;27.06;28.60
42727;BME280;28372;56.832;60.658;2022-08-03T12:11:50;98335.59;;;27.09;28.37
42727;BME280;28372;56.832;60.658;2022-08-03T12:14:27;98329.59;;;27.01;28.29
42727;BME280;28372;56.832;60.658;2022-08-03T12:17:15;98330.13;;;26.90;28.57
42727;BME280;28372;56.832;60.658;2022-08-03T12:19:43;98316.84;;;26.94;28.59
42727;BME280;28372;56.832;60.658;2022-08-03T12:22:11;98330.56;;;26.98;28.96
42727;BME280;28372;56.832;60.658;2022-08-03T12:24:43;98328.66;;;27.04;29.04
42727;BME280;28372;56.832;60.658;2022-08-03T12:27:22;98334.66;;;27.12;29.04
42727;BME280;28372;56.832;60.658;2022-08-03T12:29:53;98336.19;;;26.79;29.34
42727;BME280;28372;56.832;60.658;2022-08-03T12:32:26;98335.31;;;26.64;30.10
42727;BME280;28372;56.832;60.658;2022-08-03T12:34:56;98326.72;;;26.53;30.52
42727;BME280;28372;56.832;60.658;2022-08-03T12:37:30;98328.69;;;26.52;30.06
42727;BME280;28372;56.832;60.658;2022-08-03T12:39:59;98326.41;;;26.50;29.94
42727;BME280;28372;56.832;60.658;2022-08-03T12:42:37;98328.56;;;26.46;30.26
42727;BME280;28372;56.832;60.658;2022-08-03T12:45:19;98321.41;;;26.73;30.10
42727;BME280;28372;56.832;60.658;2022-08-03T12:50:27;98315.50;;;26.80;29.52
42727;BME280;28372;56.832;60.658;2022-08-03T12:52:59;98327.13;;;26.70;29.68
42727;BME280;28372;56.832;60.658;2022-08-03T12:55:27;98310.78;;;26.62;29.65
42727;BME280;28372;56.832;60.658;2022-08-03T12:58:39;98325.09;;;26.79;29.50
42727;BME280;28372;56.832;60.658;2022-08-03T13:01:09;98319.88;;;26.63;29.73
42727;BME280;28372;56.832;60.658;2022-08-03T13:03:45;98320.19;;;26.74;29.69
42727;BME280;28372;56.832;60.658;2022-08-03T13:06:23;98325.72;;;26.65;29.96
42727;BME280;28372;56.832;60.658;2022-08-03T13:09:02;98314.41;;;26.87;29.66
42727;BME280;28372;56.832;60.658;2022-08-03T13:11:30;98318.63;;;26.73;29.58
42727;BME280;28372;56.832;60.658;2022-08-03T13:14:18;98323.56;;;26.78;29.72
42727;BME280;28372;56.832;60.658;2022-08-03T13:16:47;98332.34;;;26.67;30.07
42727;BME280;28372;56.832;60.658;2022-08-03T13:19:15;98325.59;;;26.59;30.46
42727;BME280;28372;56.832;60.658;2022-08-03T13:21:47;98319.16;;;26.53;30.04
42727;BME280;28372;56.832;60.658;2022-08-03T13:24:30;98326.06;;;26.58;30.25
42727;BME280;28372;56.832;60.658;2022-08-03T13:26:58;98335.16;;;26.58;30.16
42727;BME280;28372;56.832;60.658;2022-08-03T13:29:46;98328.41;;;26.50;30.07
42727;BME280;28372;56.832;60.658;2022-08-03T13:32:14;98324.81;;;26.59;30.18
42727;BME280;28372;56.832;60.658;2022-08-03T13:34:41;98331.44;;;26.61;29.89
42727;BME280;28372;56.832;60.658;2022-08-03T13:37:09;98326.19;;;26.63;30.10
42727;BME280;28372;56.832;60.658;2022-08-03T13:39:38;98337.47;;;26.60;29.98
42727;BME280;28372;56.832;60.658;2022-08-03T13:42:33;98335.59;;;26.75;30.26
42727;BME280;28372;56.832;60.658;2022-08-03T13:45:02;98339.00;;;26.61;30.10
42727;BME280;28372;56.832;60.658;2022-08-03T13:47:30;98329.31;;;26.56;30.06
42727;BME280;28372;56.832;60.658;2022-08-03T13:50:00;98328.69;;;26.52;30.19
42727;BME280;28372;56.832;60.658;2022-08-03T13:52:34;98343.97;;;26.47;30.59
42727;BME280;28372;56.832;60.658;2022-08-03T13:55:04;98352.63;;;26.31;30.82
42727;BME280;28372;56.832;60.658;2022-08-03T13:57:33;98344.03;;;26.29;30.64
42727;BME280;28372;56.832;60.658;2022-08-03T14:00:21;98336.63;;;26.26;31.13
42727;BME280;28372;56.832;60.658;2022-08-03T14:02:59;98348.31;;;26.39;31.04